createdAt,value
2018-11-01T00:00:02.002Z,44.28
2018-11-01T00:02:30.094Z,44.13
2018-11-01T00:04:58.179Z,44.95
2018-11-01T00:07:26.244Z,45.34
2018-11-01T00:09:54.306Z,44.34
2018-11-01T00:12:22.345Z,43.94
2018-11-01T00:14:50.435Z,44.93
2018-11-01T00:17:18.498Z,45.05
2018-11-01T00:19:46.557Z,44.12
2018-11-01T00:22:14.583Z,44.69
2018-11-01T00:24:42.640Z,45.23
2018-11-01T00:27:10.678Z,44.80
2018-11-01T00:29:38.744Z,44.39
2018-11-01T00:32:06.835Z,45.32
2018-11-01T00:34:34.942Z,45.18
2018-11-01T00:37:02.996Z,45.65
2018-11-01T00:39:31.038Z,44.97
2018-11-01T00:41:59.141Z,45.16
2018-11-01T00:44:27.184Z,45.29
2018-11-01T00:46:55.254Z,45.09
2018-11-01T00:49:23.409Z,45.33
2018-11-01T00:51:51.478Z,44.90
2018-11-01T00:54:19.511Z,46.00
2018-11-01T00:56:47.678Z,46.26
2018-11-01T00:59:15.707Z,45.76
2018-11-01T01:01:43.790Z,45.95
2018-11-01T01:04:11.833Z,46.45
2018-11-01T01:06:39.911Z,46.45
2018-11-01T01:09:10.876Z,45.99
2018-11-01T01:11:39.170Z,45.47
2018-11-01T01:14:07.663Z,45.84
2018-11-01T01:16:35.850Z,46.21
2018-11-01T01:19:04.247Z,45.51
2018-11-01T01:21:32.228Z,45.43
2018-11-01T01:24:00.319Z,45.61
2018-11-01T01:26:28.391Z,46.08
2018-11-01T01:28:57.382Z,45.81
2018-11-01T01:31:25.462Z,46.58
2018-11-01T01:33:53.653Z,45.86
2018-11-01T01:36:21.764Z,45.76
2018-11-01T01:38:49.793Z,46.46
2018-11-01T01:41:17.872Z,46.95
2018-11-01T01:43:45.935Z,45.56
2018-11-01T01:46:14.096Z,45.41
2018-11-01T01:48:42.133Z,45.91
2018-11-01T01:51:10.211Z,46.08
2018-11-01T01:53:38.258Z,45.11
2018-11-01T01:56:12.135Z,46.17
2018-11-01T01:58:40.255Z,46.82
2018-11-01T02:01:08.421Z,46.09
2018-11-01T02:03:37.135Z,46.85
2018-11-01T02:06:05.310Z,46.26
2018-11-01T02:08:33.436Z,46.07
2018-11-01T02:11:01.630Z,46.24
2018-11-01T02:13:29.803Z,46.26
2018-11-01T02:15:57.993Z,45.63
2018-11-01T02:18:26.158Z,46.11
2018-11-01T02:20:54.230Z,46.40
2018-11-01T02:23:22.329Z,45.97
2018-11-01T02:25:50.460Z,46.87
2018-11-01T02:28:19.142Z,45.76
2018-11-01T02:30:47.295Z,46.60
2018-11-01T02:33:15.342Z,47.04
2018-11-01T02:35:43.440Z,46.21
2018-11-01T02:38:11.609Z,46.47
2018-11-01T02:40:39.572Z,46.69
2018-11-01T02:43:07.655Z,46.43
2018-11-01T02:45:35.708Z,47.43
2018-11-01T02:48:03.756Z,46.85
2018-11-01T02:50:31.837Z,46.72
2018-11-01T02:52:59.884Z,47.68
2018-11-01T02:55:27.976Z,47.86
2018-11-01T02:57:56.044Z,47.73
2018-11-01T03:00:24.129Z,48.06
2018-11-01T03:02:52.185Z,48.04
2018-11-01T03:05:20.264Z,47.22
2018-11-01T03:07:48.332Z,47.59
2018-11-01T03:10:16.402Z,48.12
2018-11-01T03:12:44.495Z,48.47
2018-11-01T03:15:13.659Z,48.01
2018-11-01T03:17:42.627Z,47.82
2018-11-01T03:20:11.533Z,47.58
2018-11-01T03:22:39.608Z,47.83
2018-11-01T03:25:08.225Z,47.42
2018-11-01T03:27:36.349Z,47.70
2018-11-01T03:30:04.953Z,47.55
2018-11-01T03:32:33.052Z,48.10
2018-11-01T03:35:01.229Z,47.97
2018-11-01T03:37:29.297Z,47.49
2018-11-01T03:39:57.398Z,48.07
2018-11-01T03:42:25.484Z,47.27
2018-11-01T03:44:53.592Z,47.21
2018-11-01T03:47:21.708Z,48.03
2018-11-01T03:49:49.784Z,47.36
2018-11-01T03:52:17.866Z,47.93
2018-11-01T03:54:45.953Z,47.74
2018-11-01T03:57:14.036Z,47.87
2018-11-01T03:59:42.140Z,48.26
2018-11-01T04:02:10.213Z,47.49
2018-11-01T04:04:38.300Z,47.68
2018-11-01T04:07:06.636Z,48.14
2018-11-01T04:09:34.700Z,48.28
2018-11-01T04:12:02.776Z,48.11
2018-11-01T04:14:30.883Z,47.89
2018-11-01T04:16:59.047Z,47.52
2018-11-01T04:19:27.057Z,47.83
2018-11-01T04:22:03.593Z,48.41
2018-11-01T04:24:31.938Z,47.80
2018-11-01T04:27:00.058Z,48.10
2018-11-01T04:29:28.117Z,48.08
2018-11-01T04:31:56.172Z,48.65
2018-11-01T04:34:24.264Z,47.86
2018-11-01T04:36:52.368Z,48.22
2018-11-01T04:39:20.441Z,48.10
2018-11-01T04:41:48.504Z,48.05
2018-11-01T04:44:16.564Z,48.38
2018-11-01T04:46:44.693Z,47.37
2018-11-01T04:49:12.728Z,48.64
2018-11-01T04:51:40.779Z,49.19
2018-11-01T04:54:08.836Z,49.18
2018-11-01T04:56:36.892Z,48.63
2018-11-01T04:59:05.240Z,48.33
2018-11-01T05:01:33.308Z,48.95
2018-11-01T05:04:01.373Z,48.28
2018-11-01T05:06:29.425Z,48.88
2018-11-01T05:08:57.488Z,48.34
2018-11-01T05:11:25.545Z,48.94
2018-11-01T05:13:53.600Z,49.13
2018-11-01T05:16:21.647Z,48.22
2018-11-01T05:18:49.727Z,49.23
2018-11-01T05:21:17.788Z,49.35
2018-11-01T05:23:45.868Z,48.94
2018-11-01T05:26:13.954Z,48.68
2018-11-01T05:28:42.070Z,49.11
2018-11-01T05:31:10.148Z,48.99
2018-11-01T05:33:38.230Z,49.28
2018-11-01T05:36:06.509Z,49.44
2018-11-01T05:38:34.588Z,48.66
2018-11-01T05:41:02.676Z,49.12
2018-11-01T05:43:30.764Z,49.26
2018-11-01T05:45:59.208Z,49.39
2018-11-01T05:48:27.325Z,48.67
2018-11-01T05:50:55.385Z,47.91
2018-11-01T05:53:23.544Z,47.97
2018-11-01T05:55:51.672Z,48.62
2018-11-01T05:58:19.747Z,49.03
2018-11-01T06:00:47.829Z,48.60
2018-11-01T06:03:15.920Z,48.73
2018-11-01T06:05:44.083Z,49.14
2018-11-01T06:08:28.173Z,48.46
2018-11-01T06:10:56.361Z,49.13
2018-11-01T06:13:24.449Z,48.97
2018-11-01T06:15:52.642Z,49.19
2018-11-01T06:18:20.969Z,48.86
2018-11-01T06:20:49.405Z,48.84
2018-11-01T06:23:17.662Z,47.86
2018-11-01T06:25:45.883Z,49.55
2018-11-01T06:28:13.986Z,49.06
2018-11-01T06:30:42.048Z,49.54
2018-11-01T06:33:10.132Z,49.34
2018-11-01T06:35:39.988Z,49.08
2018-11-01T06:38:08.101Z,48.76
2018-11-01T06:40:36.192Z,48.16
2018-11-01T06:43:04.316Z,48.64
2018-11-01T06:45:32.392Z,49.38
2018-11-01T06:48:00.491Z,49.63
2018-11-01T06:50:28.549Z,49.11
2018-11-01T06:52:56.652Z,49.54
2018-11-01T06:55:24.740Z,50.59
2018-11-01T06:57:52.956Z,49.30
2018-11-01T07:00:21.256Z,49.02
2018-11-01T07:02:49.536Z,48.43
2018-11-01T07:05:17.759Z,48.18
2018-11-01T07:07:46.734Z,48.13
2018-11-01T07:10:15.944Z,48.73
2018-11-01T07:12:44.461Z,48.26
2018-11-01T07:15:14.083Z,47.22
2018-11-01T07:17:42.723Z,47.79
2018-11-01T07:20:11.996Z,46.83
2018-11-01T07:22:40.683Z,47.84
2018-11-01T07:25:10.455Z,47.40
2018-11-01T07:27:38.536Z,47.47
2018-11-01T07:30:09.753Z,47.24
2018-11-01T07:32:38.016Z,48.02
2018-11-01T07:35:06.504Z,47.85
2018-11-01T07:37:34.793Z,48.17
2018-11-01T07:40:02.930Z,48.84
2018-11-01T07:42:31.233Z,48.47
2018-11-01T07:44:59.350Z,47.46
2018-11-01T07:47:27.424Z,48.23
2018-11-01T07:49:55.512Z,47.61
2018-11-01T07:52:24.077Z,48.35
2018-11-01T07:54:52.132Z,47.75
2018-11-01T07:57:20.184Z,47.56
2018-11-01T07:59:48.265Z,47.79
2018-11-01T08:02:16.328Z,47.82
2018-11-01T08:04:44.413Z,47.97
2018-11-01T08:07:12.484Z,48.05
2018-11-01T08:09:40.572Z,48.49
2018-11-01T08:12:08.622Z,47.39
2018-11-01T08:14:36.729Z,48.22
2018-11-01T08:17:05.253Z,47.46
2018-11-01T08:19:33.345Z,47.32
2018-11-01T08:22:01.364Z,47.91
2018-11-01T08:24:29.448Z,48.20
2018-11-01T08:26:57.499Z,47.40
2018-11-01T08:29:25.576Z,47.72
2018-11-01T08:31:53.664Z,48.57
2018-11-01T08:34:21.764Z,42.96
2018-11-01T08:36:49.888Z,43.52
2018-11-01T08:39:17.991Z,44.86
2018-11-01T08:41:46.317Z,45.76
2018-11-01T08:44:14.433Z,49.16
2018-11-01T08:46:43.400Z,48.14
2018-11-01T08:49:11.518Z,47.66
2018-11-01T08:51:39.613Z,49.93
2018-11-01T08:54:07.704Z,51.25
2018-11-01T08:56:35.976Z,50.75
2018-11-01T08:59:04.100Z,51.39
2018-11-01T09:01:32.263Z,51.28
2018-11-01T09:04:00.421Z,51.39
2018-11-01T09:06:29.288Z,51.45
2018-11-01T09:08:57.397Z,50.79
2018-11-01T09:11:25.518Z,49.51
2018-11-01T09:13:53.628Z,49.78
2018-11-01T09:16:21.773Z,50.19
2018-11-01T09:18:49.876Z,50.59
2018-11-01T09:21:17.944Z,49.88
2018-11-01T09:23:46.048Z,50.57
2018-11-01T09:26:14.155Z,50.19
2018-11-01T09:28:42.304Z,49.95
2018-11-01T09:31:10.380Z,49.87
2018-11-01T09:33:38.433Z,49.12
2018-11-01T09:36:06.492Z,48.08
2018-11-01T09:38:34.613Z,48.40
2018-11-01T09:41:02.732Z,47.18
2018-11-01T09:43:30.828Z,46.85
2018-11-01T09:45:59.047Z,47.82
2018-11-01T09:48:27.095Z,46.86
2018-11-01T09:50:55.168Z,47.50
2018-11-01T09:53:23.273Z,48.85
2018-11-01T09:55:51.964Z,47.67
2018-11-01T09:58:19.899Z,47.76
2018-11-01T10:00:47.985Z,48.08
2018-11-01T10:03:16.045Z,47.67
2018-11-01T10:05:44.132Z,47.57
2018-11-01T10:08:12.229Z,49.07
2018-11-01T10:10:40.392Z,47.78
2018-11-01T10:13:08.553Z,46.77
2018-11-01T10:15:36.685Z,46.55
2018-11-01T10:18:05.351Z,47.61
2018-11-01T10:20:32.911Z,47.56
2018-11-01T10:23:01.079Z,46.43
2018-11-01T10:25:29.271Z,47.19
2018-11-01T10:27:57.259Z,46.45
2018-11-01T10:30:25.358Z,46.57
2018-11-01T10:32:53.420Z,45.96
2018-11-01T10:35:21.552Z,45.04
2018-11-01T10:37:49.666Z,45.49
2018-11-01T10:40:19.051Z,45.71
2018-11-01T10:42:47.124Z,45.66
2018-11-01T10:45:15.365Z,45.63
2018-11-01T10:47:43.793Z,45.02
2018-11-01T10:50:16.228Z,45.41
2018-11-01T10:52:44.335Z,45.67
2018-11-01T10:55:12.937Z,45.50
2018-11-01T10:57:41.098Z,44.99
2018-11-01T11:00:15.891Z,44.77
2018-11-01T11:02:46.145Z,44.02
2018-11-01T11:05:14.901Z,43.75
2018-11-01T11:07:43.067Z,44.47
2018-11-01T11:10:11.177Z,43.20
2018-11-01T11:12:39.344Z,44.67
2018-11-01T11:15:07.980Z,43.97
2018-11-01T11:17:36.025Z,42.93
2018-11-01T11:20:04.328Z,43.21
2018-11-01T11:22:32.440Z,42.78
2018-11-01T11:25:00.532Z,42.64
2018-11-01T11:27:28.588Z,42.62
2018-11-01T11:29:56.759Z,42.72
2018-11-01T11:32:24.899Z,41.67
2018-11-01T11:34:52.985Z,42.07
2018-11-01T11:37:21.111Z,40.70
2018-11-01T11:39:49.411Z,40.38
2018-11-01T11:42:17.352Z,42.09
2018-11-01T11:44:45.448Z,43.12
2018-11-01T11:47:13.585Z,42.56
2018-11-01T11:49:41.652Z,42.38
2018-11-01T11:52:09.744Z,41.62
2018-11-01T11:54:37.816Z,42.58
2018-11-01T11:57:06.043Z,42.51
2018-11-01T11:59:34.028Z,42.54
2018-11-01T12:02:02.124Z,43.08
2018-11-01T12:04:30.188Z,42.58
2018-11-01T12:06:58.412Z,41.57
2018-11-01T12:09:26.844Z,43.17
2018-11-01T12:11:55.113Z,42.48
2018-11-01T12:14:23.373Z,42.47
2018-11-01T12:16:51.459Z,42.63
2018-11-01T12:19:19.527Z,43.05
2018-11-01T12:21:47.614Z,41.93
2018-11-01T12:24:15.693Z,42.09
2018-11-01T12:26:43.764Z,41.76
2018-11-01T12:29:11.832Z,42.70
2018-11-01T12:31:40.463Z,42.05
2018-11-01T12:34:08.565Z,42.11
2018-11-01T12:36:36.616Z,43.34
2018-11-01T12:39:06.618Z,41.13
2018-11-01T12:41:34.748Z,41.98
2018-11-01T12:44:02.743Z,42.34
2018-11-01T12:46:30.780Z,42.17
2018-11-01T12:48:58.848Z,42.05
2018-11-01T12:51:26.905Z,42.37
2018-11-01T12:53:55.139Z,42.12
2018-11-01T12:56:23.253Z,42.83
2018-11-01T12:58:51.240Z,42.76
2018-11-01T13:01:19.324Z,42.16
2018-11-01T13:03:47.380Z,42.09
2018-11-01T13:06:15.480Z,41.79
2018-11-01T13:08:43.533Z,42.85
2018-11-01T13:11:11.595Z,42.31
2018-11-01T13:13:39.648Z,42.47
2018-11-01T13:16:07.733Z,42.83
2018-11-01T13:18:36.791Z,42.53
2018-11-01T13:21:05.035Z,42.41
2018-11-01T13:23:33.161Z,42.34
2018-11-01T13:26:01.217Z,42.66
2018-11-01T13:28:29.260Z,42.22
2018-11-01T13:30:57.352Z,42.42
2018-11-01T13:33:25.453Z,42.94
2018-11-01T13:35:53.536Z,41.43
2018-11-01T13:38:21.700Z,42.15
2018-11-01T13:40:50.060Z,42.50
2018-11-01T13:43:17.835Z,42.01
2018-11-01T13:45:45.888Z,42.13
2018-11-01T13:48:14.169Z,41.89
2018-11-01T13:50:42.128Z,42.19
2018-11-01T13:53:10.217Z,41.79
2018-11-01T13:55:38.296Z,41.93
2018-11-01T13:58:06.354Z,41.60
2018-11-01T14:00:34.444Z,40.73
2018-11-01T14:03:02.657Z,42.20
2018-11-01T14:05:30.811Z,41.75
2018-11-01T14:07:59.041Z,42.06
2018-11-01T14:10:27.093Z,42.01
2018-11-01T14:12:55.212Z,42.97
2018-11-01T14:15:23.792Z,42.46
2018-11-01T14:17:51.379Z,42.40
2018-11-01T14:20:19.436Z,42.31
2018-11-01T14:22:47.480Z,42.39
2018-11-01T14:25:15.621Z,42.93
2018-11-01T14:27:43.742Z,42.90
2018-11-01T14:30:14.016Z,42.67
2018-11-01T14:32:42.148Z,43.35
2018-11-01T14:35:10.892Z,43.16
2018-11-01T14:37:39.006Z,42.48
2018-11-01T14:40:08.664Z,42.52
2018-11-01T14:42:36.747Z,42.72
2018-11-01T14:45:04.984Z,42.93
2018-11-01T14:47:33.076Z,42.76
2018-11-01T14:50:01.176Z,42.91
2018-11-01T14:52:29.611Z,43.13
2018-11-01T14:54:58.532Z,42.77
2018-11-01T14:57:26.481Z,43.23
2018-11-01T14:59:53.969Z,43.68
2018-11-01T15:02:21.555Z,42.68
2018-11-01T15:04:49.668Z,43.43
2018-11-01T15:07:18.597Z,43.67
2018-11-01T15:09:46.640Z,43.46
2018-11-01T15:12:14.696Z,43.47
2018-11-01T15:14:43.292Z,43.95
2018-11-01T15:17:12.088Z,43.80
2018-11-01T15:19:40.183Z,43.40
2018-11-01T15:22:08.237Z,44.03
2018-11-01T15:24:36.289Z,43.34
2018-11-01T15:27:04.352Z,44.08
2018-11-01T15:29:32.408Z,43.70
2018-11-01T15:32:03.396Z,43.65
2018-11-01T15:34:32.209Z,43.72
2018-11-01T15:37:00.411Z,44.71
2018-11-01T15:39:28.477Z,44.11
2018-11-01T15:41:56.552Z,44.22
2018-11-01T15:44:24.628Z,44.68
2018-11-01T15:46:52.729Z,44.86
2018-11-01T15:49:20.804Z,45.57
2018-11-01T15:51:48.927Z,44.08
2018-11-01T15:54:16.951Z,44.84
2018-11-01T15:56:45.090Z,45.59
2018-11-01T15:59:13.144Z,42.53
2018-11-01T16:01:41.285Z,39.70
2018-11-01T16:04:09.382Z,39.45
2018-11-01T16:06:37.413Z,40.08
2018-11-01T16:09:08.748Z,41.24
2018-11-01T16:11:36.836Z,41.17
2018-11-01T16:14:04.932Z,40.67
2018-11-01T16:16:33.020Z,40.35
2018-11-01T16:19:01.080Z,41.59
2018-11-01T16:21:29.149Z,41.12
2018-11-01T16:23:57.216Z,41.83
2018-11-01T16:26:25.279Z,40.65
2018-11-01T16:28:53.336Z,42.25
2018-11-01T16:31:21.432Z,42.91
2018-11-01T16:33:49.548Z,44.19
2018-11-01T16:36:17.675Z,44.36
2018-11-01T16:38:45.773Z,43.04
2018-11-01T16:41:13.856Z,42.29
2018-11-01T16:43:41.972Z,42.52
2018-11-01T16:46:10.073Z,42.03
2018-11-01T16:48:38.143Z,43.08
2018-11-01T16:51:06.361Z,42.94
2018-11-01T16:53:34.408Z,42.77
2018-11-01T16:56:03.073Z,42.32
2018-11-01T16:58:31.144Z,41.74
2018-11-01T17:00:59.240Z,42.20
2018-11-01T17:03:27.329Z,42.20
2018-11-01T17:05:55.392Z,42.85
2018-11-01T17:08:25.776Z,43.13
2018-11-01T17:10:53.821Z,42.86
2018-11-01T17:13:21.888Z,43.82
2018-11-01T17:15:49.945Z,43.54
2018-11-01T17:18:18.057Z,43.54
2018-11-01T17:20:46.144Z,43.01
2018-11-01T17:23:14.208Z,42.35
2018-11-01T17:25:42.340Z,42.25
2018-11-01T17:28:10.425Z,43.04
2018-11-01T17:30:38.480Z,43.26
2018-11-01T17:33:06.723Z,43.11
2018-11-01T17:35:34.775Z,42.64
2018-11-01T17:38:02.861Z,43.22
2018-11-01T17:40:30.945Z,42.80
2018-11-01T17:42:58.996Z,42.62
2018-11-01T17:45:27.075Z,43.49
2018-11-01T17:47:55.332Z,43.07
2018-11-01T17:50:23.521Z,44.04
2018-11-01T17:52:51.801Z,42.62
2018-11-01T17:55:20.052Z,43.02
2018-11-01T17:57:48.060Z,43.32
2018-11-01T18:00:16.465Z,43.15
2018-11-01T18:02:44.653Z,43.52
2018-11-01T18:05:13.019Z,42.75
2018-11-01T18:07:41.389Z,43.37
2018-11-01T18:10:10.643Z,42.73
2018-11-01T18:12:38.695Z,42.35
2018-11-01T18:15:07.341Z,43.02
2018-11-01T18:17:35.425Z,42.90
2018-11-01T18:20:03.589Z,42.67
2018-11-01T18:22:31.685Z,42.41
2018-11-01T18:24:59.775Z,43.44
2018-11-01T18:27:28.264Z,43.04
2018-11-01T18:29:56.384Z,42.22
2018-11-01T18:32:24.486Z,42.77
2018-11-01T18:34:52.565Z,43.40
2018-11-01T18:37:20.636Z,43.20
2018-11-01T18:39:48.737Z,43.51
2018-11-01T18:42:16.857Z,41.27
2018-11-01T18:44:45.324Z,40.21
2018-11-01T18:47:13.387Z,39.03
2018-11-01T18:49:41.464Z,40.24
2018-11-01T18:52:09.525Z,40.66
2018-11-01T18:54:37.691Z,40.63
2018-11-01T18:57:05.838Z,41.05
2018-11-01T18:59:33.995Z,40.84
2018-11-01T19:02:01.974Z,41.31
2018-11-01T19:04:30.038Z,41.92
2018-11-01T19:06:58.253Z,41.61
2018-11-01T19:09:26.340Z,43.19
2018-11-01T19:11:54.460Z,42.73
2018-11-01T19:14:22.626Z,42.38
2018-11-01T19:16:50.642Z,42.21
2018-11-01T19:19:18.794Z,42.47
2018-11-01T19:21:46.930Z,42.33
2018-11-01T19:24:15.011Z,42.20
2018-11-01T19:26:43.192Z,42.20
2018-11-01T19:29:11.185Z,43.10
2018-11-01T19:31:39.320Z,41.88
2018-11-01T19:34:07.766Z,42.56
2018-11-01T19:36:35.708Z,42.39
2018-11-01T19:39:05.292Z,42.33
2018-11-01T19:41:33.344Z,42.86
2018-11-01T19:44:01.429Z,43.43
2018-11-01T19:46:29.497Z,43.14
2018-11-01T19:48:57.608Z,43.59
2018-11-01T19:51:25.696Z,43.53
2018-11-01T19:53:53.893Z,43.10
2018-11-01T19:56:21.876Z,42.83
2018-11-01T19:58:50.466Z,43.20
2018-11-01T20:01:18.609Z,43.49
2018-11-01T20:03:46.744Z,42.79
2018-11-01T20:06:14.909Z,42.63
2018-11-01T20:08:43.011Z,43.23
2018-11-01T20:11:11.009Z,43.14
2018-11-01T20:13:39.060Z,43.46
2018-11-01T20:16:07.170Z,43.09
2018-11-01T20:18:35.256Z,43.18
2018-11-01T20:21:03.280Z,43.18
2018-11-01T20:23:31.344Z,43.55
2018-11-01T20:25:59.440Z,44.12
2018-11-01T20:28:27.516Z,43.18
2018-11-01T20:30:55.621Z,43.10
2018-11-01T20:33:23.740Z,42.90
2018-11-01T20:35:51.861Z,42.85
2018-11-01T20:38:20.003Z,43.49
2018-11-01T20:40:48.040Z,43.15
2018-11-01T20:43:16.172Z,43.79
2018-11-01T20:45:44.280Z,43.02
2018-11-01T20:48:12.440Z,43.77
2018-11-01T20:50:40.509Z,43.34
2018-11-01T20:53:08.580Z,43.41
2018-11-01T20:55:36.653Z,43.02
2018-11-01T20:58:04.805Z,43.92
2018-11-01T21:00:32.889Z,43.80
2018-11-01T21:03:01.094Z,43.83
2018-11-01T21:05:29.164Z,43.80
2018-11-01T21:07:57.229Z,43.60
2018-11-01T21:10:25.301Z,44.54
2018-11-01T21:12:53.801Z,44.07
2018-11-01T21:15:21.909Z,44.33
2018-11-01T21:17:50.012Z,43.96
2018-11-01T21:20:18.121Z,43.49
2018-11-01T21:22:46.188Z,44.09
2018-11-01T21:25:14.252Z,43.98
2018-11-01T21:27:42.364Z,44.21
2018-11-01T21:30:10.601Z,43.79
2018-11-01T21:32:38.733Z,44.59
2018-11-01T21:35:07.197Z,43.41
2018-11-01T21:37:35.325Z,44.50
2018-11-01T21:40:03.677Z,44.57
2018-11-01T21:42:31.752Z,44.98
2018-11-01T21:44:59.816Z,44.22
2018-11-01T21:47:27.861Z,45.13
2018-11-01T21:49:55.919Z,44.81
2018-11-01T21:52:23.989Z,45.44
2018-11-01T21:54:52.048Z,44.24
2018-11-01T21:57:20.190Z,45.00
2018-11-01T21:59:48.342Z,44.76
2018-11-01T22:02:17.208Z,45.05
2018-11-01T22:04:45.323Z,45.31
2018-11-01T22:07:13.430Z,45.12
2018-11-01T22:09:41.691Z,44.81
2018-11-01T22:12:09.841Z,45.13
2018-11-01T22:14:38.016Z,44.50
2018-11-01T22:17:06.608Z,44.43
2018-11-01T22:19:34.669Z,45.60
2018-11-01T22:22:02.815Z,45.33
2018-11-01T22:24:30.904Z,44.28
2018-11-01T22:32:01.964Z,44.65
2018-11-01T22:34:30.075Z,45.56
2018-11-01T22:36:58.141Z,45.90
2018-11-01T22:39:26.245Z,44.94
2018-11-01T22:41:54.365Z,45.75
2018-11-01T22:44:22.420Z,45.19
2018-11-01T22:46:50.601Z,44.62
2018-11-01T22:49:18.688Z,45.67
2018-11-01T22:51:46.829Z,45.50
2018-11-01T22:54:14.823Z,45.89
2018-11-01T22:56:42.976Z,46.14
2018-11-01T22:59:11.046Z,45.34
2018-11-01T23:01:39.944Z,45.82
2018-11-01T23:04:08.000Z,45.82
2018-11-01T23:06:36.043Z,45.44
2018-11-01T23:09:05.372Z,45.85
2018-11-01T23:11:33.429Z,46.05
2018-11-01T23:14:01.485Z,46.76
2018-11-01T23:16:29.544Z,45.41
2018-11-01T23:18:58.216Z,45.66
2018-11-01T23:21:26.272Z,45.33
2018-11-01T23:23:54.336Z,46.20
2018-11-01T23:26:22.478Z,46.24
2018-11-01T23:28:50.448Z,45.50
2018-11-01T23:31:18.492Z,46.13
2018-11-01T23:33:46.621Z,45.93
2018-11-01T23:36:13.893Z,46.30
2018-11-01T23:38:47.492Z,45.99
2018-11-01T23:41:20.904Z,45.57
2018-11-01T23:43:54.502Z,46.34
2018-11-01T23:46:27.993Z,46.25
2018-11-01T23:49:00.803Z,45.35
2018-11-01T23:51:28.863Z,45.91
2018-11-01T23:53:56.912Z,46.32
2018-11-01T23:56:24.989Z,45.95
2018-11-01T23:58:53.305Z,45.59
